Latest Weather Observations for Trepell

IDQ60801

Issued at 8:05 am EST Wednesday 24 September 2014 (issued every 30 minutes, with the page automatically refreshed every 10 minutes)

About weather observations | Map of weather stations | Latest weather observations for QLD | Other Formats
Station Details ID: 037036 Name: TREPELL AIRPORT Lat: -21.84 Lon: 140.89 Height: 266.2 m
Data from the previous 72 hours. | See also: Recent months at Trepell
Date/Time
EST
Temp
°C
App
Temp
°C
Dew
Point
Rel
Hum
%
Delta-T
°C
Wind Press
QNH
hPa
Press
MSL
hPa
Rain
since 9 am
mm
Dir
 
Spd
km/h
Gust
km/h
Spd
kts
Gust
kts
24/08:00am 23.1 16.7 0.9 23 10.4 NNE 24 33 13 18 1016.5 1015.3 0.0
24/07:30am 19.5 14.6 -3.4 21 9.5 NE 13 24 7 13 1015.8 1014.6 0.0
24/07:00am 16.1 11.3 -6.2 21 8.5 NE 11 13 6 7 1015.3 1014.1 0.0
24/06:30am 15.6 11.6 -6.0 22 8.2 ENE 7 11 4 6 1015.1 1013.9 0.0
24/06:00am 15.5 10.6 -7.3 20 8.4 NNE 11 13 6 7 1014.7 1013.5 0.0
24/05:30am 16.7 11.4 -7.0 19 8.9 NE 13 13 7 7 1014.5 1013.3 0.0
24/05:00am 17.4 12.3 -5.1 21 8.9 NNE 13 17 7 9 1014.0 1012.8 0.0
24/04:30am 15.1 10.4 -9.0 18 8.5 ENE 9 13 5 7 1013.8 1012.6 0.0
24/04:00am 16.9 11.1 -8.3 17 9.2 NNW 15 17 8 9 1013.6 1012.4 0.0
24/03:30am 17.1 12.6 -6.7 19 9.0 N 9 11 5 6 1013.6 1012.4 0.0
24/03:00am 16.1 11.5 -8.2 18 8.8 NNE 9 13 5 7 1013.6 1012.4 0.0
24/02:30am 19.6 15.1 -6.9 16 10.3 N 9 11 5 6 1013.9 1012.7 0.0
24/02:00am 17.4 12.9 -7.1 18 9.2 N 9 11 5 6 1014.2 1013.0 0.0
24/01:30am 19.1 14.6 -7.3 16 10.1 NNW 9 11 5 6 1014.3 1013.1 0.0
24/01:00am 20.8 16.3 -6.7 15 10.9 NNW 9 11 5 6 1014.3 1013.1 0.0
24/12:30am 21.3 17.0 -4.7 17 10.7 N 9 11 5 6 1014.4 1013.2 0.0
24/12:00am 19.7 14.5 -6.0 17 10.2 NNE 13 15 7 8 1014.3 1013.1 0.0
 
Date/Time
EST
Temp
°C
App
Temp
°C
Dew
Point
Rel
Hum
%
Delta-T
°C
Wind Press
QNH
hPa
Press
MSL
hPa
Rain
since 9 am
mm
Dir
 
Spd
km/h
Gust
km/h
Spd
kts
Gust
kts
23/11:30pm 19.7 14.4 -6.8 16 10.3 NE 13 17 7 9 1014.1 1012.9 0.0
23/11:00pm 20.0 14.7 -7.4 15 10.6 NNE 13 15 7 8 1014.2 1013.0 0.0
23/10:30pm 20.7 15.9 -6.0 16 10.7 NNE 11 13 6 7 1014.4 1013.2 0.0
23/10:00pm 23.2 18.0 -5.7 14 11.9 NW 13 13 7 7 1014.5 1013.3 0.0
23/09:30pm 23.6 18.0 -6.4 13 12.2 NW 15 15 8 8 1014.4 1013.2 0.0
23/09:00pm 25.2 20.8 -6.2 12 13.1 N 9 11 5 6 1014.4 1013.2 0.0
23/08:30pm 25.4 21.0 -6.0 12 13.1 N 9 9 5 5 1014.2 1013.0 0.0
23/08:00pm 24.8 20.1 -5.5 13 12.7 NNE 11 13 6 7 1013.8 1012.6 0.0
23/07:30pm 26.1 21.0 -5.5 12 13.4 NNE 13 15 7 8 1013.4 1012.2 0.0
23/07:00pm 28.3 22.5 -4.9 11 14.5 N 17 19 9 10 1013.1 1011.9 0.0
23/06:30pm 29.7 23.6 -3.9 11 15.1 NNE 19 22 10 12 1012.7 1011.4 0.0
23/06:00pm 31.0 25.0 -2.9 11 15.7 N 19 24 10 13 1012.5 1011.2 0.0
23/05:30pm 31.5 25.0 -2.5 11 15.9 N 22 35 12 19 1012.5 1011.2 0.0
23/05:00pm 32.0 26.1 -2.1 11 16.1 N 19 28 10 15 1012.4 1011.1 0.0
23/04:30pm 31.8 26.8 -1.1 12 15.8 NNW 15 24 8 13 1012.3 1011.0 0.0
23/04:00pm 32.2 26.5 -0.8 12 16.0 NNW 19 33 10 18 1012.3 1011.0 0.0
23/03:30pm 31.6 25.8 -1.2 12 15.7 N 19 30 10 16 1012.5 1011.2 0.0
23/03:00pm 31.7 26.6 1.0 14 15.3 N 17 26 9 14 1012.6 1011.3 0.0
23/02:30pm 31.6 25.0 -0.1 13 15.5 N 24 30 13 16 1012.7 1011.4 0.0
23/02:00pm 31.1 26.0 3.2 17 14.3 NNW 19 35 10 19 1013.1 1011.9 0.0
23/01:30pm 30.2 25.2 4.8 20 13.3 NNW 20 26 11 14 1013.7 1012.5 0.0
23/01:00pm 29.6 23.9 5.0 21 12.9 NNE 24 35 13 19 1014.2 1013.0 0.0
23/12:30pm 29.9 24.9 6.5 23 12.6 N 22 35 12 19 1014.9 1013.7 0.0
23/12:00pm 29.8 24.2 8.8 27 11.8 NNE 28 39 15 21 1015.3 1014.1 0.0
23/11:30am 28.0 22.4 10.2 33 10.1 NNE 30 43 16 23 1016.0 1014.7 0.0
23/11:00am 27.7 22.1 12.1 38 9.1 NE 33 43 18 23 1016.5 1015.3 0.0
23/10:30am 26.3 21.1 12.7 43 8.0 NE 32 43 17 23 1016.7 1015.5 0.0
23/10:00am 24.7 19.8 12.6 47 7.0 NNE 30 39 16 21 1017.1 1015.9 0.0
23/09:30am 24.2 20.2 13.1 50 6.5 NE 26 41 14 22 1017.5 1016.3 0.0
23/09:00am 22.3 18.1 12.5 53 5.6 ENE 26 32 14 17 1017.6 1016.4 0.0
23/08:30am 21.0 17.3 12.7 59 4.8 ENE 24 28 13 15 1017.4 1016.2 0.0
23/08:00am 20.0 16.6 12.5 62 4.3 ENE 22 28 12 15 1017.2 1016.0 0.0
23/07:30am 19.2 16.8 12.5 65 3.8 ENE 17 20 9 11 1016.9 1015.7 0.0
23/07:00am 17.7 16.2 11.9 69 3.2 ENE 11 13 6 7 1016.5 1015.3 0.0
23/06:30am 17.0 15.1 11.7 71 2.9 E 13 17 7 9 1016.2 1014.9 0.0
23/06:00am 17.7 15.6 12.4 71 3.0 ENE 15 19 8 10 1016.0 1014.7 0.0
23/05:30am 17.9 16.2 12.4 70 3.1 ENE 13 17 7 9 1015.7 1014.5 0.0
23/05:00am 18.5 16.5 12.7 69 3.3 ENE 15 19 8 10 1015.6 1014.4 0.0
23/04:30am 18.6 16.2 12.6 68 3.4 ENE 17 20 9 11 1015.2 1014.0 0.0
23/04:00am 18.9 16.5 12.6 67 3.6 ENE 17 24 9 13 1015.0 1013.8 0.0
23/03:30am 19.1 16.7 12.6 66 3.7 ENE 17 20 9 11 1014.9 1013.7 0.0
23/03:00am 19.3 16.9 12.8 66 3.7 E 17 20 9 11 1014.8 1013.6 0.0
23/02:30am 19.4 17.2 12.2 63 4.1 E 15 19 8 10 1014.8 1013.6 0.0
23/02:00am 19.8 17.6 12.1 61 4.3 E 15 20 8 11 1014.8 1013.6 0.0
23/01:30am 19.2 18.0 11.5 61 4.3 ESE 9 13 5 7 1015.0 1013.8 0.0
23/01:00am 18.2 16.2 7.3 49 5.6 SE 7 9 4 5 1015.1 1013.9 0.0
23/12:30am 19.1 16.6 8.1 49 5.7 E 11 13 6 7 1015.0 1013.8 0.0
23/12:00am 19.2 15.8 6.0 42 6.6 E 13 17 7 9 1014.9 1013.7 0.0
 
Date/Time
EST
Temp
°C
App
Temp
°C
Dew
Point
Rel
Hum
%
Delta-T
°C
Wind Press
QNH
hPa
Press
MSL
hPa
Rain
since 9 am
mm
Dir
 
Spd
km/h
Gust
km/h
Spd
kts
Gust
kts
22/11:30pm 19.5 15.4 2.4 32 8.0 SSE 13 19 7 10 1014.9 1013.7 0.0
22/11:00pm 19.1 15.4 -0.3 27 8.6 S 9 11 5 6 1015.1 1013.9 0.0
22/10:30pm 20.3 17.2 0.2 26 9.1 SW 6 7 3 4 1015.3 1014.1 0.0
22/10:00pm 20.8 17.5 0.1 25 9.3 SSW 7 7 4 4 1015.5 1014.3 0.0
22/09:30pm 21.6 17.9 0.2 24 9.8 SW 9 11 5 6 1015.4 1014.2 0.0
22/09:00pm 21.7 18.0 -0.3 23 9.9 SW 9 11 5 6 1015.3 1014.1 0.0
22/08:30pm 22.7 18.9 -0.7 21 10.6 W 9 11 5 6 1015.0 1013.8 0.0
22/08:00pm 23.2 19.7 -1.0 20 10.9 SW 7 9 4 5 1014.9 1013.7 0.0
22/07:30pm 24.5 20.8 0.1 20 11.4 W 9 11 5 6 1014.7 1013.5 0.0
22/07:00pm 25.4 22.2 0.8 20 11.7 W 7 9 4 5 1014.3 1013.1 0.0
22/06:30pm 26.2 22.2 0.8 19 12.1 SW 11 15 6 8 1013.8 1012.6 0.0
22/06:00pm 27.2 22.9 0.8 18 12.7 SW 13 19 7 10 1013.6 1012.4 0.0
22/05:30pm 28.2 24.6 0.9 17 13.2 W 9 17 5 9 1013.3 1012.1 0.0
22/05:00pm 27.6 24.5 1.2 18 12.8 E 7 13 4 7 1013.0 1011.8 0.0
22/04:30pm 28.1 24.9 0.8 17 13.2 W 7 11 4 6 1013.1 1011.9 0.0
22/04:00pm 28.2 24.8 1.7 18 13.0 WSW 9 17 5 9 1013.1 1011.9 0.0
22/03:30pm 28.1 24.5 0.8 17 13.2 N 9 17 5 9 1013.0 1011.8 0.0
22/03:00pm 28.0 25.0 0.7 17 13.2 S 6 15 3 8 1013.3 1012.1 0.0
22/02:30pm 27.3 23.5 1.7 19 12.5 S 11 20 6 11 1013.6 1012.4 0.0
22/02:00pm 27.0 22.5 2.1 20 12.2 ESE 15 20 8 11 1013.9 1012.7 0.0
22/01:30pm 26.5 23.9 4.3 24 11.3 E 7 13 4 7 1014.5 1013.3 0.0
22/01:00pm 25.7 22.3 5.8 28 10.4 S 13 22 7 12 1015.0 1013.8 0.0
22/12:30pm 25.3 22.0 6.5 30 9.9 SSE 13 19 7 10 1015.8 1014.6 0.0
22/12:00pm 23.9 21.4 8.3 37 8.4 SSE 11 19 6 10 1016.6 1015.4 0.0
22/11:30am 23.1 21.1 8.8 40 7.7 S 9 15 5 8 1017.2 1016.0 0.0
22/11:00am 22.9 20.9 10.3 45 7.0 SE 11 20 6 11 1017.7 1016.5 0.0
22/10:30am 21.8 19.5 10.3 48 6.3 SE 13 20 7 11 1018.1 1016.9 0.0
22/10:00am 21.2 17.9 11.0 52 5.7 SE 19 22 10 12 1018.3 1017.1 0.0
22/09:30am 20.2 16.9 10.9 55 5.1 SE 19 26 10 14 1018.3 1017.1 0.0
22/09:00am 19.5 16.0 10.2 55 5.0 ESE 19 24 10 13 1018.6 1017.4 0.0
22/08:30am 17.8 15.1 5.7 45 6.0 S 9 15 5 8 1018.3 1017.1 0.0
22/08:00am 16.1 12.7 1.8 38 6.4 SSW 9 13 5 7 1018.1 1016.9 0.0
22/07:30am 14.0 10.0 -2.4 32 6.6 SSW 9 11 5 6 1018.0 1016.8 0.0
22/07:00am 12.0 7.7 -5.0 30 6.3 SSW 9 13 5 7 1017.7 1016.5 0.0
22/06:30am 11.3 6.9 -5.6 30 6.1 SW 9 11 5 6 1017.2 1016.0 0.0
22/06:00am 12.3 6.7 -6.1 27 6.7 SW 15 19 8 10 1017.1 1015.9 0.0
22/05:30am 12.9 8.5 -5.6 27 6.9 WSW 9 11 5 6 1016.4 1015.2 0.0
22/05:00am 12.5 7.7 -6.0 27 6.8 SW 11 13 6 7 1015.7 1014.5 0.0
22/04:30am 13.2 8.8 -5.9 26 7.1 WSW 9 11 5 6 1015.4 1014.2 0.0
22/04:00am 13.5 8.7 -5.6 26 7.1 SW 11 13 6 7 1015.5 1014.3 0.0
22/03:30am 14.5 9.0 -5.3 25 7.5 SW 15 17 8 9 1015.6 1014.4 0.0
22/03:00am 14.8 9.3 -5.0 25 7.6 SW 15 19 8 10 1016.1 1014.8 0.0
22/02:30am 15.5 10.4 -5.0 24 7.9 SW 13 17 7 9 1016.5 1015.3 0.0
22/02:00am 16.8 11.0 -4.4 23 8.4 SW 17 20 9 11 1016.7 1015.5 0.0
22/01:30am 17.2 11.8 -4.1 23 8.5 SW 15 19 8 10 1017.0 1015.8 0.0
22/01:00am 17.0 11.6 -4.3 23 8.5 SW 15 17 8 9 1017.4 1016.2 0.0
22/12:30am 16.9 12.3 -4.3 23 8.4 SW 11 15 6 8 1017.7 1016.5 0.0
22/12:00am 17.1 12.0 -4.8 22 8.6 SW 13 17 7 9 1017.9 1016.7 0.0
 
Date/Time
EST
Temp
°C
App
Temp
°C
Dew
Point
Rel
Hum
%
Delta-T
°C
Wind Press
QNH
hPa
Press
MSL
hPa
Rain
since 9 am
mm
Dir
 
Spd
km/h
Gust
km/h
Spd
kts
Gust
kts
21/11:30pm 16.9 12.2 -4.9 22 8.6 SW 11 13 6 7 1018.0 1016.8 0.0
21/11:00pm 17.4 12.4 -4.5 22 8.7 SW 13 13 7 7 1018.2 1017.0 0.0
21/10:30pm 18.5 13.5 -4.2 21 9.2 SW 13 17 7 9 1018.3 1017.1 0.0
21/10:00pm 19.0 14.0 -4.4 20 9.5 SW 13 17 7 9 1018.5 1017.3 0.0
21/09:30pm 19.2 14.1 -5.0 19 9.7 SW 13 17 7 9 1018.4 1017.2 0.0
21/09:00pm 19.7 14.6 -5.3 18 10.0 SW 13 15 7 8 1018.2 1017.0 0.0
21/08:30pm 20.6 15.1 -5.3 17 10.5 SW 15 17 8 9 1018.0 1016.8 0.0
21/08:00pm 21.6 16.1 -5.3 16 11.0 SW 15 20 8 11 1017.8 1016.6 0.0
21/07:30pm 22.4 16.9 -5.5 15 11.5 SSW 15 19 8 10 1017.5 1016.3 0.0
21/07:00pm 23.4 17.5 -5.6 14 12.0 SSW 17 24 9 13 1017.2 1016.0 0.0
21/06:30pm 24.4 18.1 -5.8 13 12.6 SSW 19 30 10 16 1016.8 1015.6 0.0
21/06:00pm 25.5 18.2 -6.0 12 13.2 SSW 24 35 13 19 1016.4 1015.2 0.0
21/05:30pm 26.4 20.0 -6.4 11 13.7 SSW 19 28 10 15 1016.0 1014.7 0.0
21/05:00pm 27.3 20.1 -5.7 11 14.1 SW 24 33 13 18 1016.0 1014.7 0.0
21/04:30pm 27.2 20.8 -4.6 12 13.9 SSW 20 28 11 15 1015.8 1014.6 0.0
21/04:00pm 27.0 19.9 -4.8 12 13.8 WSW 24 33 13 18 1015.7 1014.5 0.0
21/03:30pm 27.4 21.6 -4.5 12 14.0 SSW 17 28 9 15 1015.7 1014.5 0.0
21/03:00pm 27.2 21.4 -4.6 12 13.9 SSW 17 35 9 19 1016.0 1014.7 0.0
21/02:30pm 27.3 21.6 -3.5 13 13.7 SW 17 28 9 15 1016.4 1015.2 0.0
21/02:00pm 27.8 21.6 -3.1 13 13.9 SW 20 37 11 20 1016.9 1015.7 0.0
21/01:30pm 26.9 21.0 -1.0 16 13.0 SSW 20 33 11 18 1017.5 1016.3 0.0
21/01:00pm 26.4 20.7 -0.6 17 12.6 SW 19 26 10 14 1018.1 1016.9 0.0
21/12:30pm 26.1 20.9 0.0 18 12.3 S 17 26 9 14 1018.7 1017.5 0.0
21/12:00pm 24.8 19.5 -0.4 19 11.6 SSW 17 28 9 15 1019.2 1018.0 0.0
21/11:30am 24.4 18.3 0.7 21 11.1 S 22 32 12 17 1019.9 1018.7 0.0
21/11:00am 22.9 17.1 0.1 22 10.4 S 20 24 11 13 1020.3 1019.1 0.0
21/10:30am 21.6 15.6 0.8 25 9.6 SSW 22 30 12 16 1020.8 1019.6 0.0
21/10:00am 21.6 15.3 1.8 27 9.3 SSW 24 33 13 18 1020.9 1019.7 0.0
21/09:30am 20.5 15.2 2.8 31 8.4 SSW 20 30 11 16 1021.1 1019.9 0.0
21/09:00am 19.5 14.5 3.6 35 7.6 SSW 19 28 10 15 1021.2 1020.0 0.0
21/08:30am 18.0 12.8 3.5 38 6.9 SSW 20 28 11 15 1021.0 1019.8 0.0

Other Formats:

Comma delimited format used in spreadsheet applications
http://www.bom.gov.au/fwo/IDQ60801/IDQ60801.94338.axf

JavaScript Object Notation format (JSON) in row-major order
http://www.bom.gov.au/fwo/IDQ60801/IDQ60801.94338.json